sensor_id;sensor_type;location;lat;lon;timestamp;pressure;altitude;pressure_sealevel;temperature;humidity
14232;BME280;7200;52.194;9.900;2023-04-30T00:04:06;101058.06;;;8.92;100.00
14232;BME280;7200;52.194;9.900;2023-04-30T00:06:31;101035.53;;;8.77;100.00
14232;BME280;7200;52.194;9.900;2023-04-30T00:08:56;101042.69;;;8.71;100.00
14232;BME280;7200;52.194;9.900;2023-04-30T00:11:22;101039.41;;;8.58;100.00
14232;BME280;7200;52.194;9.900;2023-04-30T00:13:47;101031.69;;;8.49;100.00
14232;BME280;7200;52.194;9.900;2023-04-30T00:16:12;101014.50;;;8.28;100.00
14232;BME280;7200;52.194;9.900;2023-04-30T00:18:38;101044.16;;;8.36;100.00
14232;BME280;7200;52.194;9.900;2023-04-30T00:21:03;101043.25;;;8.38;100.00
14232;BME280;7200;52.194;9.900;2023-04-30T00:23:29;101041.72;;;8.25;100.00
14232;BME280;7200;52.194;9.900;2023-04-30T00:25:54;101040.91;;;8.23;100.00
14232;BME280;7200;52.194;9.900;2023-04-30T00:28:20;101051.44;;;8.22;100.00
14232;BME280;7200;52.194;9.900;2023-04-30T00:30:45;101058.34;;;8.27;100.00
14232;BME280;7200;52.194;9.900;2023-04-30T00:33:10;101047.16;;;8.14;100.00
14232;BME280;7200;52.194;9.900;2023-04-30T00:35:36;101056.72;;;8.18;100.00
14232;BME280;7200;52.194;9.900;2023-04-30T00:38:01;101071.53;;;8.24;100.00
14232;BME280;7200;52.194;9.900;2023-04-30T00:40:26;101054.22;;;8.12;100.00
14232;BME280;7200;52.194;9.900;2023-04-30T00:42:52;101071.75;;;8.10;100.00
14232;BME280;7200;52.194;9.900;2023-04-30T00:45:20;101074.59;;;7.96;100.00
14232;BME280;7200;52.194;9.900;2023-04-30T00:47:46;101094.63;;;8.04;100.00
14232;BME280;7200;52.194;9.900;2023-04-30T00:50:11;101090.34;;;7.96;100.00
14232;BME280;7200;52.194;9.900;2023-04-30T00:52:42;101098.09;;;8.06;100.00
14232;BME280;7200;52.194;9.900;2023-04-30T00:55:10;101090.22;;;8.06;100.00
14232;BME280;7200;52.194;9.900;2023-04-30T00:57:37;101090.31;;;7.99;100.00
14232;BME280;7200;52.194;9.900;2023-04-30T01:00:03;101087.00;;;7.85;100.00
14232;BME280;7200;52.194;9.900;2023-04-30T01:02:29;101089.06;;;7.65;100.00
14232;BME280;7200;52.194;9.900;2023-04-30T01:04:56;101100.44;;;7.65;100.00
14232;BME280;7200;52.194;9.900;2023-04-30T01:07:23;101110.94;;;7.67;100.00
14232;BME280;7200;52.194;9.900;2023-04-30T01:09:49;101096.94;;;7.65;100.00
14232;BME280;7200;52.194;9.900;2023-04-30T01:12:20;101112.41;;;7.86;100.00
14232;BME280;7200;52.194;9.900;2023-04-30T01:15:07;101095.19;;;7.65;100.00
14232;BME280;7200;52.194;9.900;2023-04-30T01:17:55;101108.28;;;7.68;100.00
14232;BME280;7200;52.194;9.900;2023-04-30T01:20:22;101122.09;;;7.83;100.00
14232;BME280;7200;52.194;9.900;2023-04-30T01:22:54;101120.31;;;7.83;100.00
14232;BME280;7200;52.194;9.900;2023-04-30T01:25:33;101102.03;;;7.77;100.00
14232;BME280;7200;52.194;9.900;2023-04-30T01:28:14;101118.50;;;7.90;100.00
14232;BME280;7200;52.194;9.900;2023-04-30T01:30:44;101114.13;;;7.87;100.00
14232;BME280;7200;52.194;9.900;2023-04-30T01:33:11;101122.69;;;8.02;100.00
14232;BME280;7200;52.194;9.900;2023-04-30T01:35:51;101095.03;;;7.76;100.00
14232;BME280;7200;52.194;9.900;2023-04-30T01:38:36;101120.16;;;7.97;100.00
14232;BME280;7200;52.194;9.900;2023-04-30T01:41:28;101094.97;;;7.80;100.00
14232;BME280;7200;52.194;9.900;2023-04-30T01:44:11;101109.94;;;7.75;100.00
14232;BME280;7200;52.194;9.900;2023-04-30T01:46:45;101097.88;;;7.59;100.00
14232;BME280;7200;52.194;9.900;2023-04-30T01:49:26;101108.28;;;7.68;100.00
14232;BME280;7200;52.194;9.900;2023-04-30T01:52:05;101116.19;;;7.67;100.00
14232;BME280;7200;52.194;9.900;2023-04-30T01:54:56;101122.97;;;7.82;100.00
14232;BME280;7200;52.194;9.900;2023-04-30T01:57:28;101114.63;;;7.52;100.00
14232;BME280;7200;52.194;9.900;2023-04-30T01:59:56;101090.50;;;7.20;100.00
14232;BME280;7200;52.194;9.900;2023-04-30T02:02:22;101113.19;;;7.25;100.00
14232;BME280;7200;52.194;9.900;2023-04-30T02:04:47;101119.25;;;7.31;100.00
14232;BME280;7200;52.194;9.900;2023-04-30T02:07:19;101114.81;;;7.36;100.00
14232;BME280;7200;52.194;9.900;2023-04-30T02:09:49;101121.81;;;7.34;100.00
14232;BME280;7200;52.194;9.900;2023-04-30T02:12:14;101140.00;;;7.51;100.00
14232;BME280;7200;52.194;9.900;2023-04-30T02:14:40;101130.34;;;7.53;100.00
14232;BME280;7200;52.194;9.900;2023-04-30T02:17:05;101117.47;;;7.35;100.00
14232;BME280;7200;52.194;9.900;2023-04-30T02:19:30;101099.31;;;7.16;100.00
14232;BME280;7200;52.194;9.900;2023-04-30T02:21:56;101102.13;;;6.98;100.00
14232;BME280;7200;52.194;9.900;2023-04-30T02:24:21;101123.88;;;7.11;100.00
14232;BME280;7200;52.194;9.900;2023-04-30T02:26:46;101113.56;;;6.92;100.00
14232;BME280;7200;52.194;9.900;2023-04-30T02:29:12;101130.19;;;6.91;100.00
14232;BME280;7200;52.194;9.900;2023-04-30T02:31:37;101136.25;;;6.96;100.00
14232;BME280;7200;52.194;9.900;2023-04-30T02:34:02;101134.63;;;6.85;100.00
14232;BME280;7200;52.194;9.900;2023-04-30T02:36:28;101141.63;;;6.84;100.00
14232;BME280;7200;52.194;9.900;2023-04-30T02:38:53;101149.28;;;7.06;100.00
14232;BME280;7200;52.194;9.900;2023-04-30T02:41:18;101144.88;;;7.08;100.00
14232;BME280;7200;52.194;9.900;2023-04-30T02:43:43;101137.91;;;7.07;100.00
14232;BME280;7200;52.194;9.900;2023-04-30T02:46:09;101146.63;;;7.10;100.00
14232;BME280;7200;52.194;9.900;2023-04-30T02:48:34;101143.09;;;7.10;100.00
14232;BME280;7200;52.194;9.900;2023-04-30T02:50:59;101133.44;;;7.16;100.00
14232;BME280;7200;52.194;9.900;2023-04-30T02:53:25;101131.75;;;7.08;100.00
14232;BME280;7200;52.194;9.900;2023-04-30T02:55:50;101134.47;;;7.00;100.00
14232;BME280;7200;52.194;9.900;2023-04-30T02:58:15;101138.00;;;6.99;100.00
14232;BME280;7200;52.194;9.900;2023-04-30T03:00:40;101145.75;;;7.08;100.00
14232;BME280;7200;52.194;9.900;2023-04-30T03:03:06;101143.16;;;7.05;100.00
14232;BME280;7200;52.194;9.900;2023-04-30T03:05:31;101153.59;;;7.11;100.00
14232;BME280;7200;52.194;9.900;2023-04-30T03:07:56;101139.63;;;7.08;100.00
14232;BME280;7200;52.194;9.900;2023-04-30T03:10:21;101148.31;;;7.13;100.00
14232;BME280;7200;52.194;9.900;2023-04-30T03:12:47;101150.00;;;7.20;100.00
14232;BME280;7200;52.194;9.900;2023-04-30T03:15:12;101143.84;;;7.21;100.00
14232;BME280;7200;52.194;9.900;2023-04-30T03:17:37;101140.38;;;7.20;100.00
14232;BME280;7200;52.194;9.900;2023-04-30T03:20:03;101120.50;;;6.98;100.00
14232;BME280;7200;52.194;9.900;2023-04-30T03:22:29;101131.84;;;7.00;100.00
14232;BME280;7200;52.194;9.900;2023-04-30T03:24:54;101134.53;;;6.94;100.00
14232;BME280;7200;52.194;9.900;2023-04-30T03:27:20;101138.84;;;6.99;100.00
14232;BME280;7200;52.194;9.900;2023-04-30T03:29:45;101134.53;;;6.97;100.00
14232;BME280;7200;52.194;9.900;2023-04-30T03:32:10;101131.91;;;6.95;100.00
14232;BME280;7200;52.194;9.900;2023-04-30T03:34:37;101135.38;;;6.99;100.00
14232;BME280;7200;52.194;9.900;2023-04-30T03:37:02;101125.81;;;6.93;100.00
14232;BME280;7200;52.194;9.900;2023-04-30T03:39:28;101133.69;;;6.90;100.00
14232;BME280;7200;52.194;9.900;2023-04-30T03:41:53;101090.44;;;6.40;100.00
14232;BME280;7200;52.194;9.900;2023-04-30T03:44:18;101145.19;;;6.80;100.00
14232;BME280;7200;52.194;9.900;2023-04-30T03:46:43;101157.38;;;6.82;100.00
14232;BME280;7200;52.194;9.900;2023-04-30T03:49:09;101149.44;;;6.92;100.00
14232;BME280;7200;52.194;9.900;2023-04-30T03:51:36;101133.16;;;6.54;100.00
14232;BME280;7200;52.194;9.900;2023-04-30T03:54:04;101153.19;;;6.61;100.00
14232;BME280;7200;52.194;9.900;2023-04-30T03:56:31;101160.06;;;6.75;100.00
14232;BME280;7200;52.194;9.900;2023-04-30T03:58:56;101155.75;;;6.71;100.00
14232;BME280;7200;52.194;9.900;2023-04-30T04:01:22;101156.75;;;6.57;100.00
14232;BME280;7200;52.194;9.900;2023-04-30T04:03:47;101154.13;;;6.54;100.00
14232;BME280;7200;52.194;9.900;2023-04-30T04:06:12;101175.91;;;6.61;100.00
14232;BME280;7200;52.194;9.900;2023-04-30T04:08:38;101170.66;;;6.62;100.00
14232;BME280;7200;52.194;9.900;2023-04-30T04:11:07;101173.25;;;6.66;100.00
14232;BME280;7200;52.194;9.900;2023-04-30T04:13:32;101183.63;;;6.81;100.00
14232;BME280;7200;52.194;9.900;2023-04-30T04:15:58;101189.69;;;6.88;100.00
14232;BME280;7200;52.194;9.900;2023-04-30T04:18:23;101180.84;;;6.98;100.00
14232;BME280;7200;52.194;9.900;2023-04-30T04:20:48;101185.94;;;7.13;100.00
14232;BME280;7200;52.194;9.900;2023-04-30T04:23:14;101194.38;;;7.40;100.00
14232;BME280;7200;52.194;9.900;2023-04-30T04:25:39;101178.78;;;7.29;100.00
14232;BME280;7200;52.194;9.900;2023-04-30T04:28:05;101163.22;;;7.11;100.00
14232;BME280;7200;52.194;9.900;2023-04-30T04:30:31;101171.84;;;7.24;100.00
14232;BME280;7200;52.194;9.900;2023-04-30T04:32:56;101160.44;;;7.25;100.00
14232;BME280;7200;52.194;9.900;2023-04-30T04:35:21;101170.09;;;7.22;100.00
14232;BME280;7200;52.194;9.900;2023-04-30T04:37:47;101192.56;;;7.48;100.00
14232;BME280;7200;52.194;9.900;2023-04-30T04:40:12;101189.84;;;7.56;100.00
14232;BME280;7200;52.194;9.900;2023-04-30T04:42:38;101156.88;;;7.32;100.00
14232;BME280;7200;52.194;9.900;2023-04-30T04:45:05;101185.53;;;7.50;100.00
14232;BME280;7200;52.194;9.900;2023-04-30T04:47:31;101173.25;;;7.52;100.00
14232;BME280;7200;52.194;9.900;2023-04-30T04:49:57;101181.91;;;7.59;100.00
14232;BME280;7200;52.194;9.900;2023-04-30T04:52:22;101168.94;;;7.50;100.00
14232;BME280;7200;52.194;9.900;2023-04-30T04:54:47;101192.38;;;7.65;100.00
14232;BME280;7200;52.194;9.900;2023-04-30T04:57:13;101189.66;;;7.71;100.00
14232;BME280;7200;52.194;9.900;2023-04-30T04:59:38;101212.13;;;7.94;100.00
14232;BME280;7200;52.194;9.900;2023-04-30T05:02:03;101190.41;;;7.79;100.00
14232;BME280;7200;52.194;9.900;2023-04-30T05:04:29;101200.91;;;7.83;100.00
14232;BME280;7200;52.194;9.900;2023-04-30T05:06:54;101190.59;;;7.67;100.00
14232;BME280;7200;52.194;9.900;2023-04-30T05:09:20;101182.84;;;7.53;100.00
14232;BME280;7200;52.194;9.900;2023-04-30T05:11:45;101218.47;;;7.76;100.00
14232;BME280;7200;52.194;9.900;2023-04-30T05:14:13;101229.59;;;7.98;100.00
14232;BME280;7200;52.194;9.900;2023-04-30T05:16:38;101222.53;;;8.03;100.00
14232;BME280;7200;52.194;9.900;2023-04-30T05:19:04;101235.56;;;8.12;100.00
14232;BME280;7200;52.194;9.900;2023-04-30T05:21:29;101228.53;;;8.13;100.00
14232;BME280;7200;52.194;9.900;2023-04-30T05:23:56;101228.50;;;8.16;100.00
14232;BME280;7200;52.194;9.900;2023-04-30T05:26:21;101225.75;;;8.24;100.00
14232;BME280;7200;52.194;9.900;2023-04-30T05:28:48;101228.31;;;8.27;100.00
14232;BME280;7200;52.194;9.900;2023-04-30T05:31:14;101248.19;;;8.49;100.00
14232;BME280;7200;52.194;9.900;2023-04-30T05:33:40;101239.50;;;8.46;100.00
14232;BME280;7200;52.194;9.900;2023-04-30T05:36:06;101264.53;;;8.73;100.00
14232;BME280;7200;52.194;9.900;2023-04-30T05:38:31;101271.28;;;8.89;100.00
14232;BME280;7200;52.194;9.900;2023-04-30T05:40:56;101264.09;;;9.01;100.00
14232;BME280;7200;52.194;9.900;2023-04-30T05:43:22;101247.34;;;9.03;100.00
14232;BME280;7200;52.194;9.900;2023-04-30T05:45:47;101228.13;;;8.98;100.00
14232;BME280;7200;52.194;9.900;2023-04-30T05:48:12;101233.22;;;9.10;100.00
14232;BME280;7200;52.194;9.900;2023-04-30T05:50:38;101218.25;;;9.12;100.00
14232;BME280;7200;52.194;9.900;2023-04-30T05:53:03;101205.25;;;9.03;100.00
14232;BME280;7200;52.194;9.900;2023-04-30T05:55:28;101226.03;;;9.19;100.00
14232;BME280;7200;52.194;9.900;2023-04-30T05:57:53;101229.63;;;9.13;100.00
14232;BME280;7200;52.194;9.900;2023-04-30T06:00:19;101242.56;;;9.27;100.00
14232;BME280;7200;52.194;9.900;2023-04-30T06:05:18;101232.81;;;9.30;100.00
14232;BME280;7200;52.194;9.900;2023-04-30T06:07:43;101257.69;;;9.62;100.00
14232;BME280;7200;52.194;9.900;2023-04-30T06:10:09;101224.75;;;9.40;100.00
14232;BME280;7200;52.194;9.900;2023-04-30T06:12:34;101235.16;;;9.47;100.00
14232;BME280;7200;52.194;9.900;2023-04-30T06:15:00;101248.19;;;9.55;100.00
14232;BME280;7200;52.194;9.900;2023-04-30T06:17:25;101225.56;;;9.43;100.00
14232;BME280;7200;52.194;9.900;2023-04-30T06:19:50;101245.66;;;9.49;100.00
14232;BME280;7200;52.194;9.900;2023-04-30T06:22:16;101238.44;;;9.59;100.00
14232;BME280;7200;52.194;9.900;2023-04-30T06:24:41;101229.34;;;9.75;100.00
14232;BME280;7200;52.194;9.900;2023-04-30T06:27:06;101209.56;;;9.54;100.00
14232;BME280;7200;52.194;9.900;2023-04-30T06:29:32;101210.53;;;9.50;100.00
14232;BME280;7200;52.194;9.900;2023-04-30T06:31:57;101208.06;;;9.42;100.00
14232;BME280;7200;52.194;9.900;2023-04-30T06:34:22;101185.22;;;9.43;100.00
14232;BME280;7200;52.194;9.900;2023-04-30T06:36:48;101185.03;;;9.52;100.00
14232;BME280;7200;52.194;9.900;2023-04-30T06:39:14;101170.28;;;9.42;100.00
14232;BME280;7200;52.194;9.900;2023-04-30T06:41:40;101205.28;;;9.92;100.00
14232;BME280;7200;52.194;9.900;2023-04-30T06:44:06;101157.31;;;9.76;100.00
14232;BME280;7200;52.194;9.900;2023-04-30T06:46:32;101140.56;;;9.79;100.00
14232;BME280;7200;52.194;9.900;2023-04-30T06:48:58;101139.78;;;9.73;100.00
14232;BME280;7200;52.194;9.900;2023-04-30T06:51:23;101149.25;;;9.84;100.00
14232;BME280;7200;52.194;9.900;2023-04-30T06:53:49;101172.13;;;10.21;100.00
14232;BME280;7200;52.194;9.900;2023-04-30T06:56:14;101154.81;;;10.48;100.00
14232;BME280;7200;52.194;9.900;2023-04-30T06:58:40;101122.66;;;10.32;100.00
14232;BME280;7200;52.194;9.900;2023-04-30T07:01:06;101131.63;;;10.25;100.00
14232;BME280;7200;52.194;9.900;2023-04-30T07:03:33;101110.56;;;9.84;100.00
14232;BME280;7200;52.194;9.900;2023-04-30T07:05:59;101147.78;;;10.47;100.00
14232;BME280;7200;52.194;9.900;2023-04-30T07:08:24;101112.88;;;10.71;100.00
14232;BME280;7200;52.194;9.900;2023-04-30T07:10:49;101083.31;;;10.59;100.00
14232;BME280;7200;52.194;9.900;2023-04-30T07:13:15;101118.59;;;10.89;100.00
14232;BME280;7200;52.194;9.900;2023-04-30T07:15:41;101104.50;;;10.56;100.00
14232;BME280;7200;52.194;9.900;2023-04-30T07:18:06;101136.63;;;10.71;100.00
14232;BME280;7200;52.194;9.900;2023-04-30T07:20:32;101148.16;;;10.67;100.00
14232;BME280;7200;52.194;9.900;2023-04-30T07:22:58;101120.56;;;10.46;100.00
14232;BME280;7200;52.194;9.900;2023-04-30T07:25:23;101124.94;;;10.47;100.00
14232;BME280;7200;52.194;9.900;2023-04-30T07:27:50;101176.47;;;10.97;100.00
14232;BME280;7200;52.194;9.900;2023-04-30T07:30:16;101149.72;;;10.76;100.00
14232;BME280;7200;52.194;9.900;2023-04-30T07:32:42;101148.94;;;10.73;100.00
14232;BME280;7200;52.194;9.900;2023-04-30T07:35:08;101106.06;;;10.63;100.00
14232;BME280;7200;52.194;9.900;2023-04-30T07:37:33;101133.75;;;10.81;100.00
14232;BME280;7200;52.194;9.900;2023-04-30T07:39:58;101139.75;;;10.87;100.00
14232;BME280;7200;52.194;9.900;2023-04-30T07:42:24;101150.22;;;10.90;100.00
14232;BME280;7200;52.194;9.900;2023-04-30T07:44:49;101172.31;;;11.21;100.00
14232;BME280;7200;52.194;9.900;2023-04-30T07:47:16;101151.56;;;11.38;100.00
14232;BME280;7200;52.194;9.900;2023-04-30T07:49:42;101163.47;;;11.53;100.00
14232;BME280;7200;52.194;9.900;2023-04-30T07:52:08;101129.84;;;11.88;100.00
14232;BME280;7200;52.194;9.900;2023-04-30T07:54:35;101099.84;;;12.19;100.00
14232;BME280;7200;52.194;9.900;2023-04-30T07:57:03;101041.16;;;11.78;100.00
14232;BME280;7200;52.194;9.900;2023-04-30T07:59:28;101095.47;;;12.16;100.00
14232;BME280;7200;52.194;9.900;2023-04-30T08:01:53;101094.16;;;12.03;100.00
14232;BME280;7200;52.194;9.900;2023-04-30T08:04:19;101098.75;;;12.24;100.00
14232;BME280;7200;52.194;9.900;2023-04-30T08:06:44;101027.34;;;12.24;100.00
14232;BME280;7200;52.194;9.900;2023-04-30T08:09:10;101037.34;;;11.86;100.00
14232;BME280;7200;52.194;9.900;2023-04-30T08:11:35;101065.19;;;12.00;100.00
14232;BME280;7200;52.194;9.900;2023-04-30T08:14:00;101011.88;;;11.84;100.00
14232;BME280;7200;52.194;9.900;2023-04-30T08:16:26;100989.06;;;11.81;100.00
14232;BME280;7200;52.194;9.900;2023-04-30T08:18:51;101033.38;;;12.01;100.00
14232;BME280;7200;52.194;9.900;2023-04-30T08:21:16;100988.78;;;12.17;100.00
14232;BME280;7200;52.194;9.900;2023-04-30T08:23:42;101013.16;;;12.25;100.00
14232;BME280;7200;52.194;9.900;2023-04-30T08:26:07;101059.97;;;12.23;100.00
14232;BME280;7200;52.194;9.900;2023-04-30T08:28:33;101032.63;;;12.50;100.00
14232;BME280;7200;52.194;9.900;2023-04-30T08:30:58;101047.09;;;12.39;100.00
14232;BME280;7200;52.194;9.900;2023-04-30T08:33:23;100997.53;;;12.44;100.00
14232;BME280;7200;52.194;9.900;2023-04-30T08:35:49;101002.53;;;12.27;100.00
14232;BME280;7200;52.194;9.900;2023-04-30T08:38:15;101007.03;;;12.25;100.00
14232;BME280;7200;52.194;9.900;2023-04-30T08:40:40;101010.75;;;12.44;100.00
14232;BME280;7200;52.194;9.900;2023-04-30T08:43:07;100994.91;;;12.43;100.00
14232;BME280;7200;52.194;9.900;2023-04-30T08:45:33;100976.09;;;12.27;100.00
14232;BME280;7200;52.194;9.900;2023-04-30T08:47:59;100896.72;;;11.48;100.00
14232;BME280;7200;52.194;9.900;2023-04-30T08:50:26;101027.56;;;11.90;100.00
14232;BME280;7200;52.194;9.900;2023-04-30T08:52:52;101045.91;;;12.23;100.00
14232;BME280;7200;52.194;9.900;2023-04-30T08:55:17;101026.84;;;12.38;100.00
14232;BME280;7200;52.194;9.900;2023-04-30T08:57:42;100923.53;;;12.16;100.00
14232;BME280;7200;52.194;9.900;2023-04-30T09:00:08;100988.78;;;12.17;100.00
14232;BME280;7200;52.194;9.900;2023-04-30T09:02:34;101002.09;;;12.39;100.00
14232;BME280;7200;52.194;9.900;2023-04-30T09:05:07;101021.78;;;12.32;100.00
14232;BME280;7200;52.194;9.900;2023-04-30T09:07:35;101049.06;;;12.59;100.00
14232;BME280;7200;52.194;9.900;2023-04-30T09:10:01;101041.00;;;12.88;100.00
14232;BME280;7200;52.194;9.900;2023-04-30T09:12:27;101060.47;;;12.87;100.00
14232;BME280;7200;52.194;9.900;2023-04-30T09:15:05;101087.75;;;12.89;100.00
14232;BME280;7200;52.194;9.900;2023-04-30T09:17:31;101066.06;;;13.02;100.00
14232;BME280;7200;52.194;9.900;2023-04-30T09:20:11;101026.84;;;13.12;100.00
14232;BME280;7200;52.194;9.900;2023-04-30T09:22:38;101054.44;;;13.07;100.00
14232;BME280;7200;52.194;9.900;2023-04-30T09:25:05;100973.25;;;13.05;100.00
14232;BME280;7200;52.194;9.900;2023-04-30T09:27:31;100996.19;;;13.30;100.00
14232;BME280;7200;52.194;9.900;2023-04-30T09:29:56;100909.72;;;13.04;100.00
14232;BME280;7200;52.194;9.900;2023-04-30T09:32:22;100979.56;;;12.78;100.00
14232;BME280;7200;52.194;9.900;2023-04-30T09:34:47;101011.75;;;12.91;100.00
14232;BME280;7200;52.194;9.900;2023-04-30T09:37:12;101000.75;;;13.25;100.00
14232;BME280;7200;52.194;9.900;2023-04-30T09:42:13;101058.03;;;13.53;100.00
14232;BME280;7200;52.194;9.900;2023-04-30T09:44:39;101046.53;;;13.76;100.00
14232;BME280;7200;52.194;9.900;2023-04-30T09:47:16;101008.59;;;13.74;100.00
14232;BME280;7200;52.194;9.900;2023-04-30T09:49:43;100930.19;;;13.89;100.00
14232;BME280;7200;52.194;9.900;2023-04-30T09:52:09;100858.28;;;13.74;100.00
14232;BME280;7200;52.194;9.900;2023-04-30T09:54:34;100841.59;;;13.72;100.00
14232;BME280;7200;52.194;9.900;2023-04-30T09:57:01;100820.78;;;13.83;98.86
14232;BME280;7200;52.194;9.900;2023-04-30T09:59:29;100796.44;;;13.94;95.36
14232;BME280;7200;52.194;9.900;2023-04-30T10:02:00;100803.63;;;13.51;97.99
14232;BME280;7200;52.194;9.900;2023-04-30T10:04:33;100812.50;;;13.28;98.49
14232;BME280;7200;52.194;9.900;2023-04-30T10:07:01;100931.28;;;13.62;100.00
14232;BME280;7200;52.194;9.900;2023-04-30T10:09:39;100914.94;;;13.94;100.00
14232;BME280;7200;52.194;9.900;2023-04-30T10:12:13;100909.78;;;14.11;98.91
14232;BME280;7200;52.194;9.900;2023-04-30T10:14:44;100916.38;;;14.21;98.45
14232;BME280;7200;52.194;9.900;2023-04-30T10:17:13;100919.44;;;14.33;97.91
14232;BME280;7200;52.194;9.900;2023-04-30T10:19:45;100856.63;;;14.52;93.33
14232;BME280;7200;52.194;9.900;2023-04-30T10:22:10;100811.97;;;14.23;93.08
14232;BME280;7200;52.194;9.900;2023-04-30T10:24:36;100846.56;;;14.00;96.96
14232;BME280;7200;52.194;9.900;2023-04-30T10:27:02;100953.69;;;14.18;100.00
14232;BME280;7200;52.194;9.900;2023-04-30T10:29:27;100966.47;;;14.50;100.00
14232;BME280;7200;52.194;9.900;2023-04-30T10:31:53;100982.47;;;14.48;100.00
14232;BME280;7200;52.194;9.900;2023-04-30T10:37:38;101006.31;;;14.70;100.00
14232;BME280;7200;52.194;9.900;2023-04-30T10:40:08;100820.81;;;14.80;92.10
14232;BME280;7200;52.194;9.900;2023-04-30T10:42:34;100751.50;;;14.67;88.71
14232;BME280;7200;52.194;9.900;2023-04-30T10:45:01;100752.00;;;14.75;87.86
14232;BME280;7200;52.194;9.900;2023-04-30T10:47:28;100790.16;;;14.73;89.75
14232;BME280;7200;52.194;9.900;2023-04-30T10:50:07;100874.28;;;14.53;94.95
14232;BME280;7200;52.194;9.900;2023-04-30T10:52:32;100924.94;;;14.69;97.85
14232;BME280;7200;52.194;9.900;2023-04-30T10:54:58;100826.13;;;14.80;92.34
14232;BME280;7200;52.194;9.900;2023-04-30T10:57:28;100823.31;;;15.02;89.35
14232;BME280;7200;52.194;9.900;2023-04-30T11:02:41;100804.75;;;14.45;90.86
14232;BME280;7200;52.194;9.900;2023-04-30T11:05:15;100810.94;;;14.65;91.17
14232;BME280;7200;52.194;9.900;2023-04-30T11:07:57;100726.38;;;14.36;89.93
14232;BME280;7200;52.194;9.900;2023-04-30T11:10:24;100727.06;;;14.04;90.25
14232;BME280;7200;52.194;9.900;2023-04-30T11:12:51;100784.72;;;14.38;89.73
14232;BME280;7200;52.194;9.900;2023-04-30T11:15:19;100825.06;;;14.84;87.75
14232;BME280;7200;52.194;9.900;2023-04-30T11:17:47;100764.28;;;14.95;84.97
14232;BME280;7200;52.194;9.900;2023-04-30T11:20:13;100765.53;;;14.88;85.97
14232;BME280;7200;52.194;9.900;2023-04-30T11:22:39;100786.59;;;15.10;85.61
14232;BME280;7200;52.194;9.900;2023-04-30T11:25:08;100748.31;;;15.14;83.49
14232;BME280;7200;52.194;9.900;2023-04-30T11:27:35;100717.03;;;15.02;82.36
14232;BME280;7200;52.194;9.900;2023-04-30T11:30:02;100720.59;;;15.01;82.07
14232;BME280;7200;52.194;9.900;2023-04-30T11:32:33;100727.38;;;15.26;80.55
14232;BME280;7200;52.194;9.900;2023-04-30T11:35:02;100728.28;;;15.07;81.96
14232;BME280;7200;52.194;9.900;2023-04-30T11:37:32;100733.28;;;15.31;80.71
14232;BME280;7200;52.194;9.900;2023-04-30T11:40:00;100777.13;;;15.57;80.54
14232;BME280;7200;52.194;9.900;2023-04-30T11:42:26;100733.81;;;15.55;79.50
14232;BME280;7200;52.194;9.900;2023-04-30T11:45:01;100628.22;;;15.57;73.89
14232;BME280;7200;52.194;9.900;2023-04-30T11:47:27;100567.53;;;14.98;75.69
14232;BME280;7200;52.194;9.900;2023-04-30T11:49:52;100634.56;;;14.69;79.93
14232;BME280;7200;52.194;9.900;2023-04-30T11:52:24;100737.56;;;15.16;80.82
14232;BME280;7200;52.194;9.900;2023-04-30T11:54:49;100683.41;;;14.84;80.80
14232;BME280;7200;52.194;9.900;2023-04-30T11:57:15;100677.78;;;15.25;77.06
14232;BME280;7200;52.194;9.900;2023-04-30T11:59:40;100568.31;;;15.01;74.02
14232;BME280;7200;52.194;9.900;2023-04-30T12:02:06;100662.56;;;15.11;75.63
14232;BME280;7200;52.194;9.900;2023-04-30T12:04:32;100726.63;;;15.40;78.47
14232;BME280;7200;52.194;9.900;2023-04-30T12:06:59;100794.34;;;15.50;80.72
14232;BME280;7200;52.194;9.900;2023-04-30T12:09:24;100885.28;;;15.93;83.29
14232;BME280;7200;52.194;9.900;2023-04-30T12:11:49;100761.75;;;15.64;81.66
14232;BME280;7200;52.194;9.900;2023-04-30T12:14:15;100714.25;;;15.73;77.66
14232;BME280;7200;52.194;9.900;2023-04-30T12:16:49;100565.34;;;15.72;70.80
14232;BME280;7200;52.194;9.900;2023-04-30T12:19:15;100606.75;;;15.77;70.89
14232;BME280;7200;52.194;9.900;2023-04-30T12:21:42;100673.25;;;15.77;73.13
14232;BME280;7200;52.194;9.900;2023-04-30T12:24:12;100649.91;;;15.99;70.50
14232;BME280;7200;52.194;9.900;2023-04-30T12:26:39;100619.09;;;15.94;70.02
14232;BME280;7200;52.194;9.900;2023-04-30T12:29:10;100610.44;;;16.07;68.34
14232;BME280;7200;52.194;9.900;2023-04-30T12:31:37;100525.03;;;15.95;64.73
14232;BME280;7200;52.194;9.900;2023-04-30T12:34:06;100661.50;;;16.13;67.21
14232;BME280;7200;52.194;9.900;2023-04-30T12:36:33;100559.72;;;15.78;67.39
14232;BME280;7200;52.194;9.900;2023-04-30T12:39:14;100540.47;;;15.57;69.32
14232;BME280;7200;52.194;9.900;2023-04-30T12:41:41;100684.09;;;16.06;70.30
14232;BME280;7200;52.194;9.900;2023-04-30T12:44:15;100633.44;;;16.24;67.82
14232;BME280;7200;52.194;9.900;2023-04-30T12:46:40;100706.75;;;16.13;72.08
14232;BME280;7200;52.194;9.900;2023-04-30T12:49:06;100654.31;;;16.31;69.38
14232;BME280;7200;52.194;9.900;2023-04-30T12:51:36;100679.84;;;16.50;68.76
14232;BME280;7200;52.194;9.900;2023-04-30T12:54:04;100631.34;;;16.29;68.39
14232;BME280;7200;52.194;9.900;2023-04-30T12:56:29;100634.72;;;16.32;68.00
14232;BME280;7200;52.194;9.900;2023-04-30T12:58:55;100635.94;;;16.57;66.23
14232;BME280;7200;52.194;9.900;2023-04-30T13:01:21;100678.81;;;16.68;67.71
14232;BME280;7200;52.194;9.900;2023-04-30T13:03:48;100574.66;;;16.43;66.09
14232;BME280;7200;52.194;9.900;2023-04-30T13:06:14;100614.44;;;16.30;67.63
14232;BME280;7200;52.194;9.900;2023-04-30T13:08:39;100662.75;;;16.70;67.50
14232;BME280;7200;52.194;9.900;2023-04-30T13:11:05;100612.28;;;16.67;65.68